ZSU Weather Center

Puerto Rico


TJSJ 231356Z 07009G17KT 10SM SCT030 SCT075 29/23 A2997 RMK AO2 SLP147 T02940233

TJBQ 231350Z 09013G16KT 10SM CLR 29/24 A2998 RMK LTG DSNT S THROUGH NW

TJIG 231352Z 11008KT 10SM SCT050 BKN100 29/23 A2996

TJMZ 101550Z 11009KT 10SM SCT050 33/24

TJPS 310650Z 00000KT 8SM SCT020 BKN030 22/22 A3001

 

St. Maarten


TNCM 231300Z 08008KT 050V110 9999 SCT016 29/24 Q1015 NOSIG

 

St. Thomas USVI


TIST 231353Z 08007KT 10SM CLR 30/21 A2996 RMK AO2 SLP146 T03000211

 

St. Croix USVI


TISX 231353Z 11011KT 10SM CLR 31/23 A2997 RMK AO2 SLP146 T03060233

 

Anguilla BVI


TQPF 231400Z 11012KT 9999 SCT019 30/23 Q1015

 

Beef Island BVI


TUPJ 231500Z 12008KT 10SM FEW///CB SCT018 31/24 A2996 RMK Q1014 VIS35KM CB-S

 

Sint Eustatius


METAR not Available.

 

 

 

Puerto Rico


TAF TJSJ 231120Z 2312/2412 VRB03KT P6SM FEW025 SCT035 FM231400 06010KT P6SM SCT025 SCT040 FM231700 06013KT P6SM VCTS SCT030CB SCT050 FM232300 VRB04KT P6SM VCSH SCT030 SCT050

TAF TJBQ 231120Z 2312/2412 11005KT P6SM FEW030 FM231400 08009KT P6SM FEW025 FM231700 06012KT P6SM VCTS SCT030CB SCT050 FM232300 11006KT P6SM FEW030

TAF TJPS 231120Z 2312/2412 VRB03KT P6SM FEW030 FM231400 12010KT P6SM SCT025 FM231700 15013KT P6SM VCTS SCT030CB SCT050 FM232200 09007KT P6SM FEW030 FEW050 FM240100 00000KT P6SM FEW030

 

St. Maarten


TAF TAF TNCM 231120Z 2312/2412 07006KT P6SM VCSH SCT018 FM231400 11008KT P6SM VCSH SCT020 FM232300 08007KT P6SM VCSH SCT018

 

St. Thomas USVI


TAF TIST 231120Z 2312/2412 10005KT P6SM FEW030 FM231400 12010KT P6SM VCSH FEW025 SCT040 FM232100 08008KT P6SM VCSH SCT025 SCT040

 

St. Croix USVI


TAF TISX 231120Z 2312/2412 04004KT P6SM VCSH SCT030 SCT040 BKN045 FM231400 11010KT P6SM VCSH SCT025 SCT050 FM232300 05005KT P6SM VCSH SCT030

 

Anguilla BVI


TAF TQPF 231100Z 2312/2412 11008KT 9999 SCT019 PROB40 TEMPO 2312/2321 SHRA PROB30 TEMPO 2315/2320 TSRA FEW012CB BKN016

 

Beef Island BVI


TAF TUPJ 231100Z 2312/2412 11008KT 9999 SCT019 PROB40 TEMPO 2312/2321 SHRA PROB30 TEMPO 2315/2320 TSRA FEW012CB BKN016

 

Composite Reflectivity


 

 

Caribbean Surface Analysis